Terminal Aerodrome Forecast
Issued by NWS

Home | Current Version | Previous Version | Text Only | Print | Product List | Glossary On
Versions: 1 2 3 4 5 6 7 8 9 10 11 12 13 14
888
FTUS43 KEAX 281128
TAFSTJ
TAF
KSTJ 281128Z 2812/0112 20016G24KT P6SM SCT025 OVC250
     FM281900 24014G22KT P6SM SCT035 OVC250
     FM282300 32012KT P6SM OVC050
     FM010400 33017G25KT 5SM -RA OVC015
     FM010900 31014G21KT P6SM OVC050=

USA.gov is the U.S. government's official web portal to all federal, state and local government web resources and services.